createdAt,value
2023-03-19T00:00:53.128Z,75.10
2023-03-19T00:05:56.551Z,75.10
2023-03-19T00:11:07.849Z,75.10
2023-03-19T00:16:11.496Z,75.10
2023-03-19T00:21:15.202Z,75.10
2023-03-19T00:26:20.245Z,75.20
2023-03-19T00:31:25.089Z,75.20
2023-03-19T00:36:30.069Z,75.20
2023-03-19T00:41:35.306Z,75.90
2023-03-19T00:46:38.799Z,75.20
2023-03-19T00:51:44.008Z,75.30
2023-03-19T00:56:48.820Z,75.40
2023-03-19T01:01:52.528Z,75.40
2023-03-19T01:06:56.167Z,75.30
2023-03-19T01:12:04.612Z,75.30
2023-03-19T01:17:09.185Z,75.40
2023-03-19T01:22:14.222Z,75.40
2023-03-19T01:27:23.539Z,75.40
2023-03-19T01:32:28.166Z,75.40
2023-03-19T01:37:51.078Z,75.40
2023-03-19T01:43:03.727Z,75.40
2023-03-19T01:48:47.471Z,75.40
2023-03-19T01:53:59.122Z,75.40
2023-03-19T01:59:24.298Z,75.40
2023-03-19T02:04:54.188Z,75.50
2023-03-19T02:09:58.327Z,75.40
2023-03-19T02:15:03.158Z,75.60
2023-03-19T02:20:16.546Z,75.70
2023-03-19T02:25:29.748Z,75.50
2023-03-19T02:30:36.114Z,75.50
2023-03-19T02:35:47.429Z,75.60
2023-03-19T02:40:59.645Z,75.60
2023-03-19T02:46:09.385Z,75.60
2023-03-19T02:51:13.538Z,75.60
2023-03-19T02:56:16.982Z,75.60
2023-03-19T03:01:21.974Z,75.60
2023-03-19T03:06:25.766Z,75.60
2023-03-19T03:11:29.262Z,75.60
2023-03-19T03:16:34.105Z,75.60
2023-03-19T03:21:37.545Z,75.60
2023-03-19T03:26:40.964Z,75.70
2023-03-19T03:31:46.715Z,75.70
2023-03-19T03:36:50.150Z,75.70
2023-03-19T03:41:53.922Z,75.70
2023-03-19T03:46:58.784Z,75.70
2023-03-19T03:52:02.211Z,75.70
2023-03-19T03:57:10.279Z,75.70
2023-03-19T04:02:15.419Z,75.70
2023-03-19T04:07:19.582Z,75.80
2023-03-19T04:12:28.187Z,75.80
2023-03-19T04:17:33.292Z,76.50
2023-03-19T04:22:37.092Z,75.80
2023-03-19T04:27:40.714Z,75.80
2023-03-19T04:32:46.392Z,75.80
2023-03-19T04:37:49.896Z,75.80
2023-03-19T04:42:55.668Z,75.80
2023-03-19T04:48:09.304Z,75.80
2023-03-19T04:53:13.753Z,75.80
2023-03-19T04:58:18.893Z,75.80
2023-03-19T05:03:30.110Z,75.80
2023-03-19T05:08:34.102Z,75.80
2023-03-19T05:13:37.604Z,75.80
2023-03-19T05:18:42.950Z,75.90
2023-03-19T05:23:46.785Z,75.90
2023-03-19T05:28:51.702Z,75.90
2023-03-19T05:34:01.437Z,75.90
2023-03-19T05:39:09.205Z,75.90
2023-03-19T05:44:15.192Z,75.90
2023-03-19T05:49:49.196Z,76.00
2023-03-19T05:54:53.707Z,76.00
2023-03-19T06:00:16.750Z,76.00
2023-03-19T06:05:21.977Z,76.00
2023-03-19T06:10:28.177Z,76.00
2023-03-19T06:15:35.100Z,76.00
2023-03-19T06:20:58.926Z,76.00
2023-03-19T06:26:02.714Z,76.00
2023-03-19T06:31:11.549Z,76.00
2023-03-19T06:36:42.642Z,76.10
2023-03-19T06:41:48.622Z,76.00
2023-03-19T06:46:58.541Z,76.10
2023-03-19T06:52:04.380Z,76.10
2023-03-19T06:57:07.900Z,76.10
2023-03-19T07:02:13.363Z,76.10
2023-03-19T07:07:18.110Z,76.10
2023-03-19T07:12:21.588Z,76.20
2023-03-19T07:17:26.408Z,76.10
2023-03-19T07:22:31.176Z,76.10
2023-03-19T07:27:34.599Z,76.20
2023-03-19T07:32:38.823Z,76.20
2023-03-19T07:37:44.058Z,76.20
2023-03-19T07:42:47.496Z,76.20
2023-03-19T07:47:52.587Z,76.20
2023-03-19T07:52:57.387Z,76.20
2023-03-19T07:58:00.985Z,76.20
2023-03-19T08:03:04.744Z,76.20
2023-03-19T08:08:09.806Z,76.20
2023-03-19T08:13:14.155Z,76.10
2023-03-19T08:18:17.957Z,76.20
2023-03-19T08:23:22.740Z,76.20
2023-03-19T08:28:26.316Z,76.20
2023-03-19T08:33:29.718Z,76.10
2023-03-19T08:38:34.543Z,76.20
2023-03-19T08:43:39.301Z,76.20
2023-03-19T08:48:42.835Z,76.20
2023-03-19T08:53:47.662Z,76.20
2023-03-19T08:58:51.321Z,76.20
2023-03-19T09:03:54.758Z,76.20
2023-03-19T09:08:59.510Z,76.10
2023-03-19T09:14:02.990Z,76.10
2023-03-19T09:19:06.418Z,76.10
2023-03-19T09:24:11.581Z,76.00
2023-03-19T09:29:15.530Z,76.10
2023-03-19T09:34:19.129Z,76.10
2023-03-19T09:39:23.928Z,76.10
2023-03-19T09:44:31.821Z,76.10
2023-03-19T09:49:41.384Z,76.10
2023-03-19T09:54:49.803Z,76.10
2023-03-19T09:59:54.828Z,76.00
2023-03-19T10:05:12.578Z,76.00
2023-03-19T10:10:36.756Z,76.00
2023-03-19T10:15:44.317Z,76.00
2023-03-19T10:20:54.951Z,76.00
2023-03-19T10:26:03.744Z,76.00
2023-03-19T10:31:26.936Z,76.00
2023-03-19T10:36:36.833Z,76.70
2023-03-19T10:41:51.591Z,76.00
2023-03-19T10:46:55.181Z,76.00
2023-03-19T10:51:59.635Z,76.00
2023-03-19T10:57:04.581Z,75.90
2023-03-19T11:02:19.999Z,75.90
2023-03-19T11:07:25.635Z,75.90
2023-03-19T11:12:37.450Z,75.90
2023-03-19T11:17:46.683Z,75.90
2023-03-19T11:22:51.596Z,75.80
2023-03-19T11:28:08.643Z,75.90
2023-03-19T11:33:52.265Z,75.90
2023-03-19T11:39:20.504Z,75.90
2023-03-19T11:44:32.390Z,75.90
2023-03-19T11:50:02.081Z,75.90
2023-03-19T11:55:21.264Z,75.90
2023-03-19T12:00:32.476Z,75.90
2023-03-19T12:05:47.604Z,75.80
2023-03-19T12:11:05.588Z,75.80
2023-03-19T12:16:25.129Z,75.80
2023-03-19T12:21:41.960Z,75.90
2023-03-19T12:27:03.279Z,75.90
2023-03-19T12:32:28.171Z,75.90
2023-03-19T12:37:38.563Z,75.90
2023-03-19T12:42:43.569Z,76.00
2023-03-19T12:47:49.982Z,75.90
2023-03-19T12:52:58.537Z,75.90
2023-03-19T12:58:12.099Z,75.70
2023-03-19T13:03:25.510Z,75.60
2023-03-19T13:08:35.862Z,75.20
2023-03-19T13:13:49.291Z,74.60
2023-03-19T13:19:10.401Z,74.30
2023-03-19T13:24:24.806Z,74.40
2023-03-19T13:29:30.736Z,74.50
2023-03-19T13:34:38.560Z,74.50
2023-03-19T13:39:42.905Z,74.40
2023-03-19T13:44:55.079Z,74.40
2023-03-19T13:50:34.963Z,74.50
2023-03-19T13:56:00.186Z,75.30
2023-03-19T14:01:03.837Z,74.30
2023-03-19T14:06:35.928Z,74.20
2023-03-19T14:11:39.658Z,74.30
2023-03-19T14:16:46.398Z,74.50
2023-03-19T14:22:19.985Z,74.40
2023-03-19T14:27:32.791Z,74.30
2023-03-19T14:32:41.772Z,74.40
2023-03-19T14:37:52.437Z,74.80
2023-03-19T14:43:09.126Z,75.20
2023-03-19T14:48:40.649Z,75.80
2023-03-19T14:53:51.314Z,75.50
2023-03-19T14:58:57.886Z,75.80
2023-03-19T15:04:07.241Z,75.50
2023-03-19T15:09:20.993Z,75.10
2023-03-19T15:14:48.004Z,74.90
2023-03-19T15:19:52.048Z,75.00
2023-03-19T15:25:07.164Z,74.90
2023-03-19T15:30:22.974Z,75.50
2023-03-19T15:35:33.667Z,75.60
2023-03-19T15:40:39.483Z,75.80
2023-03-19T15:45:48.067Z,75.80
2023-03-19T15:50:58.764Z,75.60
2023-03-19T15:56:05.549Z,75.30
2023-03-19T16:01:10.728Z,75.10
2023-03-19T16:06:21.438Z,75.30
2023-03-19T16:11:37.187Z,75.20
2023-03-19T16:16:42.814Z,75.10
2023-03-19T16:21:46.247Z,74.80
2023-03-19T16:26:51.106Z,74.90
2023-03-19T16:32:01.456Z,74.70
2023-03-19T16:37:40.021Z,74.60
2023-03-19T16:42:46.805Z,74.50
2023-03-19T16:47:52.351Z,74.10
2023-03-19T16:52:56.440Z,74.30
2023-03-19T16:58:04.757Z,74.20
2023-03-19T17:03:14.851Z,74.00
2023-03-19T17:08:18.347Z,74.70
2023-03-19T17:13:29.725Z,73.90
2023-03-19T17:18:36.667Z,74.00
2023-03-19T17:23:40.144Z,73.80
2023-03-19T17:28:47.006Z,73.90
2023-03-19T17:33:50.846Z,73.80
2023-03-19T17:38:57.115Z,74.40
2023-03-19T17:44:05.059Z,73.70
2023-03-19T17:49:20.585Z,73.70
2023-03-19T17:54:26.678Z,73.70
2023-03-19T17:59:31.517Z,73.60
2023-03-19T18:04:34.938Z,73.60
2023-03-19T18:09:38.423Z,73.60
2023-03-19T18:14:43.206Z,73.60
2023-03-19T18:19:50.579Z,73.60
2023-03-19T18:24:54.046Z,73.50
2023-03-19T18:29:58.837Z,73.60
2023-03-19T18:35:02.364Z,73.60
2023-03-19T18:40:06.984Z,73.60
2023-03-19T18:45:13.929Z,73.60
2023-03-19T18:50:20.974Z,73.50
2023-03-19T18:55:30.223Z,73.60
2023-03-19T19:00:37.841Z,73.50
2023-03-19T19:05:41.628Z,73.60
2023-03-19T19:10:50.369Z,73.60
2023-03-19T19:15:55.478Z,73.50
2023-03-19T19:21:01.796Z,73.50
2023-03-19T19:26:05.624Z,73.50
2023-03-19T19:31:25.695Z,73.60
2023-03-19T19:36:31.196Z,73.60
2023-03-19T19:41:34.932Z,73.60
2023-03-19T19:46:39.718Z,73.60
2023-03-19T19:51:43.189Z,73.50
2023-03-19T19:56:46.627Z,73.60
2023-03-19T20:01:51.441Z,73.60
2023-03-19T20:06:55.000Z,73.50
2023-03-19T20:11:58.507Z,73.50
2023-03-19T20:17:05.555Z,73.60
2023-03-19T20:22:08.974Z,73.60
2023-03-19T20:27:20.091Z,73.60
2023-03-19T20:32:32.741Z,73.50
2023-03-19T20:37:36.154Z,73.50
2023-03-19T20:42:40.062Z,73.60
2023-03-19T20:47:45.257Z,73.70
2023-03-19T20:52:48.862Z,73.70
2023-03-19T20:57:53.484Z,73.50
2023-03-19T21:03:01.220Z,73.60
2023-03-19T21:08:07.360Z,73.70
2023-03-19T21:13:16.562Z,73.70
2023-03-19T21:18:21.746Z,73.70
2023-03-19T21:23:31.798Z,73.70
2023-03-19T21:28:39.280Z,73.70
2023-03-19T21:33:44.221Z,73.70
2023-03-19T21:38:47.780Z,73.80
2023-03-19T21:43:56.096Z,73.80
2023-03-19T21:49:01.159Z,73.70
2023-03-19T21:54:05.880Z,73.60
2023-03-19T21:59:16.047Z,73.70
2023-03-19T22:04:21.278Z,73.70
2023-03-19T22:09:24.829Z,73.90
2023-03-19T22:14:28.834Z,73.70
2023-03-19T22:19:33.593Z,73.60
2023-03-19T22:24:36.996Z,73.60
2023-03-19T22:29:40.772Z,73.70
2023-03-19T22:34:46.096Z,73.80
2023-03-19T22:39:49.508Z,73.70
2023-03-19T22:44:54.541Z,73.50
2023-03-19T22:49:59.375Z,73.60
2023-03-19T22:55:02.767Z,73.70
2023-03-19T23:00:17.758Z,73.80
2023-03-19T23:05:35.887Z,73.80
2023-03-19T23:10:39.692Z,73.60
2023-03-19T23:15:44.406Z,73.70
2023-03-19T23:20:50.620Z,73.70
2023-03-19T23:25:54.380Z,73.90
2023-03-19T23:30:59.134Z,73.90
2023-03-19T23:36:04.106Z,73.90
2023-03-19T23:41:14.510Z,73.80
2023-03-19T23:46:18.176Z,73.70
2023-03-19T23:51:23.525Z,73.80
2023-03-19T23:56:28.510Z,73.90
